Veslos, Denmark
Current Conditions -  °F | °C
As of 10:20 PM on Sunday 23 Nov 2014 (Local Time) from EKYT Reporting Station
Haze Haze  
Wind Chill: 42°   Ceiling: 800
Heat Index: 48°   Visibility: 2.5mi
Dew Point: 45°   Wind: 18mph
Humidity: 87%   Direction: 160°SSE
Pressure: 29.88"   Gusts: NA
Location:  57.02°N, 8.97°E
Report Text: EKYT 232120Z 16016KT 4000 BR SCT007 OVC008 09/07 Q1012
Loading
Personal Weather Stations






























Interactive Weather Map New forecast layout! Learn more

10-Day Weather Forecast

Advertisements
Track Severe Weather on mobile